Latest Weather Observations for Cape Jaffa

IDS60801

Issued at 4:01 am CDT Tuesday 21 February 2017 (issued every 30 minutes, with the page automatically refreshed every 10 minutes)

About weather observations | Map of weather stations | Latest weather observations for SA | Other Formats
Station Details ID: 026095 Name: THE LIMESTONE Lat: -36.97 Lon: 139.72 Height: 17.0 m
Data from the previous 72 hours. | See also: Recent months at Cape Jaffa
Date/Time
CDT
Temp
°C
App
Temp
°C
Dew
Point
°C
Rel
Hum
%
Delta-T
°C
Wind Press
QNH
hPa
Press
MSL
hPa
Rain since
9am
mm
Dir  Spd
km/h
Gust
km/h
Spd
kts
Gust
kts
21/03:30am 9.1 7.1 6.9 86 1.0 ESE 7 9 4 5 1018.9 1018.8 0.0
21/03:00am 9.2 7.3 6.8 85 1.1 ESE 6 7 3 4 1019.0 1018.9 0.0
21/02:30am 9.8 7.8 7.1 83 1.3 ESE 7 7 4 4 1019.2 1019.1 0.0
21/02:00am 10.0 8.0 7.1 82 1.4 ESE 7 7 4 4 1019.3 1019.2 0.0
21/01:30am 9.9 7.8 6.8 81 1.5 ESE 7 9 4 5 1019.1 1019.0 0.0
21/01:00am 10.4 8.4 6.9 79 1.7 ESE 7 9 4 5 1019.5 1019.4 0.0
21/12:30am 10.4 8.3 6.7 78 1.7 SE 7 9 4 5 1019.8 1019.7 0.0
21/12:00am 11.8 9.5 7.3 74 2.2 SSE 9 11 5 6 1020.1 1020.0 0.0
 
Date/Time
CDT
Temp
°C
App
Temp
°C
Dew
Point
°C
Rel
Hum
%
Delta-T
°C
Wind Press
QNH
hPa
Press
MSL
hPa
Rain since
9am
mm
Dir  Spd
km/h
Gust
km/h
Spd
kts
Gust
kts
20/11:30pm 11.2 8.8 6.9 75 2.0 SSE 9 9 5 5 1020.1 1020.0 0.0
20/11:00pm 11.6 9.2 7.1 74 2.2 SSE 9 13 5 7 1020.0 1019.9 0.0
20/10:30pm 12.3 9.6 7.4 72 2.4 SSE 11 13 6 7 1020.0 1019.9 0.0
20/10:00pm 11.3 8.1 6.8 74 2.1 S 13 13 7 7 1020.1 1020.0 0.0
20/09:30pm 13.1 10.0 7.3 68 2.8 SSE 13 15 7 8 1019.8 1019.7 0.0
20/09:00pm 13.3 10.2 7.3 67 2.9 SSE 13 17 7 9 1019.5 1019.4 0.0
20/08:30pm 13.4 9.8 6.7 64 3.2 S 15 19 8 10 1019.2 1019.1 0.0
20/08:00pm 14.1 10.5 6.7 61 3.6 S 15 19 8 10 1019.1 1019.0 0.0
20/07:30pm 15.6 11.1 6.3 54 4.5 SSW 19 26 10 14 1018.8 1018.7 0.0
20/07:00pm 16.3 11.6 6.2 51 4.9 SSW 20 26 11 14 1018.4 1018.3 0.0
20/06:30pm 16.9 12.3 6.4 50 5.1 SSW 20 26 11 14 1018.2 1018.1 0.0
20/06:00pm 17.3 12.4 7.1 51 5.1 SSW 22 30 12 16 1017.9 1017.8 0.0
20/05:30pm 17.7 12.9 7.4 51 5.2 SSW 22 28 12 15 1017.7 1017.6 0.0
20/05:00pm 18.7 13.5 7.2 47 5.8 SSW 24 30 13 16 1017.6 1017.5 0.0
20/04:30pm 17.7 12.3 6.3 47 5.6 SSW 24 32 13 17 1017.6 1017.5 0.0
20/04:00pm 18.3 13.0 6.8 47 5.7 SSW 24 32 13 17 1017.5 1017.4 0.0
20/03:30pm 18.5 12.6 6.0 44 6.1 SSW 26 32 14 17 1017.5 1017.4 0.0
20/03:00pm 19.0 13.6 6.5 44 6.2 SW 24 33 13 18 1017.7 1017.6 0.0
20/02:30pm 19.1 13.5 5.6 41 6.6 SW 24 33 13 18 1017.8 1017.7 0.0
20/02:00pm 18.9 13.7 5.7 42 6.5 SW 22 30 12 16 1017.9 1017.8 0.0
20/01:30pm 18.8 14.0 7.3 47 5.8 SSW 22 32 12 17 1017.9 1017.8 0.0
20/01:00pm 19.1 14.0 6.2 43 6.4 SSW 22 30 12 16 1017.9 1017.8 0.0
20/12:30pm 18.3 13.8 6.8 47 5.7 SSW 20 28 11 15 1018.1 1018.0 0.0
20/12:00pm 18.0 13.1 5.2 43 6.2 SW 20 30 11 16 1018.2 1018.1 0.0
20/11:30am 18.1 13.5 5.7 44 6.0 SW 19 26 10 14 1018.4 1018.3 0.0
20/11:00am 17.7 12.9 5.6 45 5.9 SW 20 28 11 15 1018.4 1018.3 0.0
20/10:30am 17.3 12.8 6.2 48 5.4 SSW 19 24 10 13 1018.3 1018.2 0.0
20/10:00am 16.2 12.1 6.3 52 4.8 SW 17 20 9 11 1018.2 1018.1 0.0
20/09:30am 17.1 13.2 7.2 52 4.9 SSW 17 22 9 12 1018.1 1018.0 0.0
20/09:00am 16.8 12.4 6.6 51 5.0 SW 19 24 10 13 1017.9 1017.8 0.8
20/08:30am 16.2 12.1 6.1 51 4.9 SSW 17 22 9 12 1017.6 1017.5 0.8
20/08:00am 15.0 10.6 5.0 51 4.7 SSW 17 22 9 12 1017.2 1017.1 0.8
20/07:30am 13.1 9.5 6.7 65 3.1 SSW 15 20 8 11 1016.8 1016.7 0.8
20/07:00am 12.6 9.0 6.9 68 2.7 S 15 17 8 9 1016.5 1016.4 0.8
20/06:30am 13.9 9.5 7.2 64 3.3 S 20 24 11 13 1016.1 1016.0 0.8
20/06:00am 12.9 8.5 6.5 65 3.1 SSW 19 28 10 15 1015.9 1015.8 0.8
20/05:30am 13.4 8.6 5.8 60 3.6 SSW 20 26 11 14 1015.5 1015.4 0.8
20/05:00am 13.5 8.8 5.9 60 3.6 SSW 20 28 11 15 1015.5 1015.4 0.8
20/04:30am 13.7 8.6 6.1 60 3.6 SSW 22 30 12 16 1015.5 1015.4 0.8
20/04:00am 14.1 8.6 6.0 58 3.9 SSW 24 30 13 16 1015.4 1015.3 0.8
20/03:30am 14.4 9.5 7.0 61 3.6 SSW 22 28 12 15 1015.3 1015.2 0.8
20/03:00am 14.3 9.9 7.4 63 3.4 SSW 20 28 11 15 1015.3 1015.2 0.8
20/02:30am 14.3 9.6 7.8 65 3.2 S 22 33 12 18 1015.4 1015.3 0.8
20/02:00am 14.6 9.9 5.9 56 4.2 SW 20 28 11 15 1015.5 1015.4 0.8
20/01:30am 14.4 9.4 6.5 59 3.8 SW 22 30 12 16 1015.6 1015.5 0.8
20/01:00am 14.5 8.3 6.1 57 4.0 SW 28 35 15 19 1015.7 1015.6 0.8
20/12:30am 13.6 8.4 5.5 58 3.8 SW 22 32 12 17 1015.7 1015.6 0.8
20/12:00am 14.1 7.9 6.2 59 3.8 SW 28 35 15 19 1015.7 1015.6 0.8
 
Date/Time
CDT
Temp
°C
App
Temp
°C
Dew
Point
°C
Rel
Hum
%
Delta-T
°C
Wind Press
QNH
hPa
Press
MSL
hPa
Rain since
9am
mm
Dir  Spd
km/h
Gust
km/h
Spd
kts
Gust
kts
19/11:30pm 14.4 9.0 6.5 59 3.8 SW 24 30 13 16 1015.9 1015.8 0.8
19/11:00pm 13.7 9.2 6.3 61 3.5 SSW 19 24 10 13 1015.9 1015.8 0.8
19/10:30pm 13.4 8.0 6.5 63 3.3 SSW 24 32 13 17 1015.8 1015.7 0.8
19/10:00pm 13.8 7.9 5.7 58 3.8 SSW 26 35 14 19 1015.9 1015.8 0.8
19/09:30pm 13.7 7.8 5.8 59 3.7 SSW 26 35 14 19 1015.5 1015.4 0.8
19/09:00pm 13.8 6.9 4.7 54 4.2 SSW 30 41 16 22 1015.5 1015.4 0.8
19/08:30pm 14.1 7.0 5.7 57 4.0 SSW 32 41 17 22 1015.3 1015.2 0.8
19/08:00pm 14.1 7.6 6.5 60 3.7 SSW 30 39 16 21 1014.9 1014.8 0.8
19/07:30pm 14.6 8.1 6.7 59 3.8 SSW 30 41 16 22 1014.6 1014.5 0.8
19/07:00pm 15.3 8.3 5.8 53 4.6 SSW 32 41 17 22 1014.3 1014.2 0.8
19/06:30pm 15.9 8.8 6.3 53 4.7 SSW 33 46 18 25 1014.1 1014.0 0.8
19/06:00pm 15.7 8.9 6.7 55 4.4 SSW 32 41 17 22 1014.1 1014.0 0.8
19/05:30pm 16.5 9.8 7.2 54 4.6 SW 32 41 17 22 1013.9 1013.8 0.8
19/05:00pm 16.4 9.5 7.3 55 4.5 SW 33 41 18 22 1013.9 1013.8 0.8
19/04:30pm 16.9 10.5 9.3 61 4.0 SW 33 43 18 23 1013.9 1013.8 0.8
19/04:00pm 17.6 11.3 9.8 60 4.1 SW 33 41 18 22 1013.8 1013.7 0.8
19/03:30pm 17.7 11.7 10.1 61 4.0 SW 32 43 17 23 1013.9 1013.8 0.8
19/03:00pm 16.6 10.4 10.2 66 3.4 SSW 33 43 18 23 1013.9 1013.8 0.8
19/02:30pm 15.8 11.6 12.4 80 1.9 SW 26 41 14 22 1014.0 1013.9 0.8
19/02:00pm 16.6 11.6 10.9 69 3.1 WSW 28 37 15 20 1014.3 1014.2 0.2
19/01:30pm 15.0 8.5 10.4 74 2.4 SW 35 43 19 23 1014.3 1014.2 0.2
19/01:00pm 15.0 7.6 10.0 72 2.6 SW 39 57 21 31 1014.1 1014.0 0.2
19/12:55pm 17.4 10.4 9.8 61 4.0 SW 37 57 20 31 1013.9 1013.8 0.2
19/12:30pm 17.2 10.8 9.4 60 4.1 SW 33 43 18 23 1014.2 1014.1 0.2
19/12:00pm 15.8 7.9 9.5 66 3.3 SW 41 52 22 28 1014.6 1014.5 0.2
19/11:30am 15.8 9.6 11.4 75 2.4 SW 35 44 19 24 1014.6 1014.5 0.2
19/11:00am 15.3 10.0 11.1 76 2.2 SW 30 39 16 21 1014.7 1014.6 0.0
19/10:30am 16.8 10.6 10.2 65 3.5 SW 33 43 18 23 1014.7 1014.6 0.0
19/10:00am 15.9 11.2 10.7 71 2.8 WSW 26 37 14 20 1014.6 1014.5 0.0
19/09:38am 14.2 8.2 10.2 77 2.1 WSW 32 50 17 27 1014.7 1014.6 0.0
19/09:30am 14.1 7.2 10.3 78 2.0 WSW 37 50 20 27 1014.5 1014.4 0.0
19/09:12am 15.3 9.5 10.7 74 2.4 SW 32 50 17 27 1014.4 1014.3 0.0
19/09:00am 14.9 9.0 10.5 75 2.3 SW 32 44 17 24 1014.3 1014.2 1.0
19/08:30am 13.4 9.2 11.1 86 1.2 SW 24 35 13 19 1014.2 1014.1 0.8
19/08:23am 13.0 7.0 10.9 87 1.1 SW 33 52 18 28 1014.2 1014.1 0.8
19/08:00am 14.1 8.3 9.3 73 2.5 SW 30 39 16 21 1013.9 1013.8 0.8
19/07:41am 14.0 8.3 9.8 76 2.2 SW 30 54 16 29 1013.8 1013.7 0.8
19/07:30am 13.3 6.4 10.3 82 1.6 SW 37 50 20 27 1013.8 1013.7 0.8
19/07:19am 13.9 8.4 10.5 80 1.8 SW 30 50 16 27 1013.6 1013.5 0.8
19/07:00am 13.9 8.4 10.5 80 1.8 WSW 30 39 16 21 1013.6 1013.5 0.8
19/06:30am 13.5 8.9 11.0 85 1.3 WSW 26 41 14 22 1013.5 1013.4 0.8
19/06:00am 13.0 9.0 10.4 84 1.3 SW 22 32 12 17 1013.4 1013.3 0.4
19/05:30am 13.6 9.3 9.5 76 2.1 WSW 22 32 12 17 1013.3 1013.2 0.4
19/05:00am 13.8 6.8 8.6 71 2.6 WSW 35 46 19 25 1013.2 1013.1 0.4
19/04:30am 14.4 7.6 9.2 71 2.7 WSW 35 46 19 25 1013.3 1013.2 0.4
19/04:00am 14.3 8.8 9.3 72 2.6 WSW 28 37 15 20 1013.5 1013.4 0.4
19/03:30am 14.5 8.2 9.1 70 2.8 WSW 32 48 17 26 1013.5 1013.4 0.4
19/03:00am 14.2 8.9 8.4 68 2.9 SW 26 35 14 19 1013.8 1013.7 0.4
19/02:30am 14.1 7.7 9.3 73 2.5 SW 33 44 18 24 1014.1 1014.0 0.4
19/02:15am 14.9 8.6 7.5 61 3.7 WSW 30 50 16 27 1014.2 1014.1 0.4
19/02:00am 14.8 8.4 7.1 60 3.8 SW 30 39 16 21 1014.4 1014.3 0.4
19/01:30am 14.4 8.5 7.7 64 3.3 WSW 28 37 15 20 1014.7 1014.6 0.4
19/01:00am 14.1 8.9 7.2 63 3.4 SW 24 35 13 19 1014.9 1014.8 0.4
19/12:30am 13.7 8.5 9.0 73 2.4 WSW 26 35 14 19 1015.1 1015.0 0.4
19/12:00am 14.4 8.5 7.5 63 3.4 SW 28 37 15 20 1015.2 1015.1 0.4
 
Date/Time
CDT
Temp
°C
App
Temp
°C
Dew
Point
°C
Rel
Hum
%
Delta-T
°C
Wind Press
QNH
hPa
Press
MSL
hPa
Rain since
9am
mm
Dir  Spd
km/h
Gust
km/h
Spd
kts
Gust
kts
18/11:30pm 14.1 9.2 8.3 68 2.9 SW 24 35 13 19 1015.2 1015.1 0.4
18/11:00pm 14.4 9.9 8.4 67 3.0 SW 22 32 12 17 1015.4 1015.3 0.4
18/10:30pm 14.2 7.8 6.8 61 3.6 SW 30 41 16 22 1015.5 1015.4 0.4
18/10:00pm 13.8 8.9 8.6 71 2.6 SW 24 35 13 19 1015.6 1015.5 0.4
18/09:30pm 13.8 7.7 6.7 62 3.4 SW 28 35 15 19 1015.5 1015.4 0.4
18/09:00pm 13.8 7.9 7.6 66 3.0 SW 28 37 15 20 1015.3 1015.2 0.4
18/08:30pm 13.1 8.2 8.6 74 2.2 SW 24 33 13 18 1015.2 1015.1 0.4
18/08:00pm 13.7 9.2 8.5 71 2.6 SW 22 30 12 16 1015.1 1015.0 0.4
18/07:30pm 13.1 10.0 8.8 75 2.2 WSW 15 20 8 11 1015.0 1014.9 0.4
18/07:19pm 12.9 7.3 8.6 75 2.1 SW 28 48 15 26 1015.1 1015.0 0.4
18/07:00pm 14.9 9.8 7.7 62 3.6 WSW 24 33 13 18 1014.9 1014.8 0.2
18/06:30pm 14.2 7.4 6.8 61 3.6 SW 32 44 17 24 1014.8 1014.7 0.2
18/06:14pm 16.4 9.9 6.5 52 4.9 SW 30 52 16 28 1014.5 1014.4 0.2
18/06:00pm 15.6 10.3 6.9 56 4.3 SW 24 30 13 16 1014.6 1014.5 0.2
18/05:30pm 16.9 10.8 6.7 51 5.0 SW 28 35 15 19 1014.5 1014.4 0.2
18/05:00pm 17.8 11.0 6.7 48 5.5 WSW 32 41 17 22 1014.4 1014.3 0.2
18/04:30pm 17.9 11.0 6.4 47 5.7 WSW 32 37 17 20 1014.3 1014.2 0.2
18/04:00pm 17.8 11.1 7.2 50 5.3 WSW 32 39 17 21 1014.5 1014.4 0.2
18/03:30pm 17.6 10.6 6.2 47 5.6 WSW 32 39 17 21 1014.6 1014.5 0.2
18/03:00pm 17.9 11.8 6.7 48 5.6 SW 28 35 15 19 1014.8 1014.7 0.2
18/02:30pm 18.1 11.6 6.6 47 5.7 SW 30 37 16 20 1014.8 1014.7 0.2
18/02:00pm 17.7 11.5 6.3 47 5.6 WSW 28 39 15 21 1014.6 1014.5 0.2
18/01:30pm 17.0 11.8 7.1 52 4.9 SW 24 30 13 16 1014.7 1014.6 0.2
18/01:00pm 15.3 10.1 8.8 65 3.3 SW 26 33 14 18 1014.9 1014.8 0.2
18/12:30pm 15.9 12.2 9.3 65 3.4 WSW 19 26 10 14 1014.9 1014.8 0.2
18/12:00pm 15.1 8.2 8.8 66 3.2 SW 35 44 19 24 1014.9 1014.8 0.0
18/11:30am 17.1 11.4 6.9 51 5.1 WSW 26 35 14 19 1014.7 1014.6 0.0
18/11:00am 16.5 11.5 8.0 57 4.3 SW 24 33 13 18 1014.4 1014.3 0.0
18/10:30am 17.0 10.6 8.7 58 4.3 SW 32 35 17 19 1014.2 1014.1 0.0
18/10:00am 15.9 10.2 8.2 60 3.9 SW 28 35 15 19 1014.1 1014.0 0.0
18/09:30am 15.6 11.9 9.3 66 3.2 SW 19 24 10 13 1014.0 1013.9 0.0
18/09:00am 14.8 10.4 9.0 68 3.0 WSW 22 32 12 17 1013.8 1013.7 1.0
18/08:30am 12.4 6.6 8.1 75 2.1 WSW 28 43 15 23 1013.8 1013.7 1.0
18/08:21am 14.3 10.2 8.7 69 2.8 WSW 20 41 11 22 1013.5 1013.4 0.8
18/08:00am 13.7 10.9 8.5 71 2.6 WSW 13 17 7 9 1013.3 1013.2 0.8
18/07:30am 12.4 8.7 8.1 75 2.1 WSW 17 20 9 11 1013.0 1012.9 0.8
18/07:00am 13.3 8.6 7.7 69 2.8 SW 22 41 12 22 1012.6 1012.5 0.8
18/06:30am 13.0 8.7 7.0 67 2.9 SW 19 26 10 14 1012.2 1012.1 0.8
18/06:00am 12.9 7.6 6.9 67 2.9 SW 24 35 13 19 1012.0 1011.9 0.8
18/05:30am 13.2 7.2 5.4 59 3.6 WSW 26 37 14 20 1011.7 1011.6 0.8
18/05:00am 13.4 8.0 6.3 62 3.4 SW 24 33 13 18 1011.7 1011.6 0.8
18/04:30am 13.2 7.9 6.8 65 3.1 SW 24 32 13 17 1011.8 1011.7 0.8

Other Formats:

Comma delimited format used in spreadsheet applications
http://www.bom.gov.au/fwo/IDS60801/IDS60801.94813.axf

JavaScript Object Notation format (JSON) in row-major order
http://www.bom.gov.au/fwo/IDS60801/IDS60801.94813.json